sensor_id;sensor_type;location;lat;lon;timestamp;P1;durP1;ratioP1;P2;durP2;ratioP2
32637;SDS011;19045;52.268;10.506;2022-10-24T00:00:59;3.92;;;1.77;;
32637;SDS011;19045;52.268;10.506;2022-10-24T00:03:27;3.90;;;1.75;;
32637;SDS011;19045;52.268;10.506;2022-10-24T00:05:54;6.03;;;1.80;;
32637;SDS011;19045;52.268;10.506;2022-10-24T00:08:20;4.10;;;1.75;;
32637;SDS011;19045;52.268;10.506;2022-10-24T00:10:47;4.13;;;1.50;;
32637;SDS011;19045;52.268;10.506;2022-10-24T00:13:15;8.73;;;1.80;;
32637;SDS011;19045;52.268;10.506;2022-10-24T00:15:42;9.95;;;1.77;;
32637;SDS011;19045;52.268;10.506;2022-10-24T00:18:10;4.80;;;1.52;;
32637;SDS011;19045;52.268;10.506;2022-10-24T00:20:38;5.30;;;1.80;;
32637;SDS011;19045;52.268;10.506;2022-10-24T00:23:04;5.72;;;1.60;;
32637;SDS011;19045;52.268;10.506;2022-10-24T00:25:31;4.22;;;1.67;;
32637;SDS011;19045;52.268;10.506;2022-10-24T00:27:58;11.43;;;2.00;;
32637;SDS011;19045;52.268;10.506;2022-10-24T00:30:24;7.45;;;2.20;;
32637;SDS011;19045;52.268;10.506;2022-10-24T00:32:51;4.20;;;2.28;;
32637;SDS011;19045;52.268;10.506;2022-10-24T00:35:18;6.10;;;2.15;;
32637;SDS011;19045;52.268;10.506;2022-10-24T00:37:47;3.50;;;2.05;;
32637;SDS011;19045;52.268;10.506;2022-10-24T00:40:14;9.05;;;2.67;;
32637;SDS011;19045;52.268;10.506;2022-10-24T00:42:42;7.47;;;2.50;;
32637;SDS011;19045;52.268;10.506;2022-10-24T00:48:08;5.38;;;1.95;;
32637;SDS011;19045;52.268;10.506;2022-10-24T00:50:39;7.63;;;2.45;;
32637;SDS011;19045;52.268;10.506;2022-10-24T00:53:07;11.43;;;2.95;;
32637;SDS011;19045;52.268;10.506;2022-10-24T00:55:34;5.63;;;2.30;;
32637;SDS011;19045;52.268;10.506;2022-10-24T00:58:01;4.97;;;1.98;;
32637;SDS011;19045;52.268;10.506;2022-10-24T01:00:31;5.93;;;2.40;;
32637;SDS011;19045;52.268;10.506;2022-10-24T01:02:59;4.43;;;1.85;;
32637;SDS011;19045;52.268;10.506;2022-10-24T01:05:27;4.50;;;2.00;;
32637;SDS011;19045;52.268;10.506;2022-10-24T01:08:01;3.97;;;2.03;;
32637;SDS011;19045;52.268;10.506;2022-10-24T01:10:43;6.03;;;2.17;;
32637;SDS011;19045;52.268;10.506;2022-10-24T01:13:25;12.48;;;2.72;;
32637;SDS011;19045;52.268;10.506;2022-10-24T01:16:00;11.52;;;2.35;;
32637;SDS011;19045;52.268;10.506;2022-10-24T01:18:36;4.60;;;2.28;;
32637;SDS011;19045;52.268;10.506;2022-10-24T01:21:11;4.03;;;2.22;;
32637;SDS011;19045;52.268;10.506;2022-10-24T01:23:53;7.78;;;2.78;;
32637;SDS011;19045;52.268;10.506;2022-10-24T01:26:36;6.20;;;2.58;;
32637;SDS011;19045;52.268;10.506;2022-10-24T01:29:35;17.80;;;3.08;;
32637;SDS011;19045;52.268;10.506;2022-10-24T01:32:13;11.43;;;3.45;;
32637;SDS011;19045;52.268;10.506;2022-10-24T01:34:45;3.95;;;2.33;;
32637;SDS011;19045;52.268;10.506;2022-10-24T01:37:20;6.75;;;2.72;;
32637;SDS011;19045;52.268;10.506;2022-10-24T01:39:54;5.93;;;2.75;;
32637;SDS011;19045;52.268;10.506;2022-10-24T01:42:25;12.60;;;3.17;;
32637;SDS011;19045;52.268;10.506;2022-10-24T01:44:57;8.27;;;3.05;;
32637;SDS011;19045;52.268;10.506;2022-10-24T01:47:28;11.52;;;2.95;;
32637;SDS011;19045;52.268;10.506;2022-10-24T01:50:00;13.25;;;3.45;;
32637;SDS011;19045;52.268;10.506;2022-10-24T01:52:30;6.35;;;2.90;;
32637;SDS011;19045;52.268;10.506;2022-10-24T01:54:59;13.23;;;3.15;;
32637;SDS011;19045;52.268;10.506;2022-10-24T01:57:27;13.90;;;4.15;;
32637;SDS011;19045;52.268;10.506;2022-10-24T01:59:54;9.88;;;4.00;;
32637;SDS011;19045;52.268;10.506;2022-10-24T02:02:24;10.40;;;3.90;;
32637;SDS011;19045;52.268;10.506;2022-10-24T02:07:22;9.55;;;3.67;;
32637;SDS011;19045;52.268;10.506;2022-10-24T02:09:52;9.18;;;3.78;;
32637;SDS011;19045;52.268;10.506;2022-10-24T02:12:23;8.43;;;3.33;;
32637;SDS011;19045;52.268;10.506;2022-10-24T02:14:52;8.63;;;3.40;;
32637;SDS011;19045;52.268;10.506;2022-10-24T02:17:26;7.05;;;2.65;;
32637;SDS011;19045;52.268;10.506;2022-10-24T02:19:53;8.68;;;3.22;;
32637;SDS011;19045;52.268;10.506;2022-10-24T02:22:23;9.27;;;3.15;;
32637;SDS011;19045;52.268;10.506;2022-10-24T02:24:54;9.90;;;3.33;;
32637;SDS011;19045;52.268;10.506;2022-10-24T02:27:28;8.45;;;2.72;;
32637;SDS011;19045;52.268;10.506;2022-10-24T02:32:28;6.78;;;2.83;;
32637;SDS011;19045;52.268;10.506;2022-10-24T02:34:57;8.68;;;3.17;;
32637;SDS011;19045;52.268;10.506;2022-10-24T02:37:26;13.57;;;3.80;;
32637;SDS011;19045;52.268;10.506;2022-10-24T02:39:55;13.20;;;3.47;;
32637;SDS011;19045;52.268;10.506;2022-10-24T02:42:24;10.90;;;3.38;;
32637;SDS011;19045;52.268;10.506;2022-10-24T02:44:52;8.27;;;3.15;;
32637;SDS011;19045;52.268;10.506;2022-10-24T02:47:21;16.92;;;3.88;;
32637;SDS011;19045;52.268;10.506;2022-10-24T02:49:52;16.38;;;4.10;;
32637;SDS011;19045;52.268;10.506;2022-10-24T02:52:19;13.43;;;4.10;;
32637;SDS011;19045;52.268;10.506;2022-10-24T02:54:47;12.05;;;5.03;;
32637;SDS011;19045;52.268;10.506;2022-10-24T02:57:14;11.98;;;4.80;;
32637;SDS011;19045;52.268;10.506;2022-10-24T02:59:41;12.55;;;5.07;;
32637;SDS011;19045;52.268;10.506;2022-10-24T03:02:07;16.75;;;4.35;;
32637;SDS011;19045;52.268;10.506;2022-10-24T03:04:34;15.55;;;5.00;;
32637;SDS011;19045;52.268;10.506;2022-10-24T03:07:02;18.73;;;5.20;;
32637;SDS011;19045;52.268;10.506;2022-10-24T03:09:28;14.75;;;6.05;;
32637;SDS011;19045;52.268;10.506;2022-10-24T03:11:55;14.85;;;6.53;;
32637;SDS011;19045;52.268;10.506;2022-10-24T03:14:21;20.83;;;7.93;;
32637;SDS011;19045;52.268;10.506;2022-10-24T03:16:51;18.45;;;7.00;;
32637;SDS011;19045;52.268;10.506;2022-10-24T03:19:18;19.58;;;7.47;;
32637;SDS011;19045;52.268;10.506;2022-10-24T03:21:47;20.17;;;7.35;;
32637;SDS011;19045;52.268;10.506;2022-10-24T03:24:16;20.90;;;7.53;;
32637;SDS011;19045;52.268;10.506;2022-10-24T03:26:43;15.88;;;6.45;;
32637;SDS011;19045;52.268;10.506;2022-10-24T03:29:10;18.73;;;6.35;;
32637;SDS011;19045;52.268;10.506;2022-10-24T03:31:38;14.10;;;5.47;;
32637;SDS011;19045;52.268;10.506;2022-10-24T03:34:05;18.85;;;5.78;;
32637;SDS011;19045;52.268;10.506;2022-10-24T03:36:32;13.90;;;4.43;;
32637;SDS011;19045;52.268;10.506;2022-10-24T03:38:58;13.27;;;4.85;;
32637;SDS011;19045;52.268;10.506;2022-10-24T03:41:26;13.73;;;3.80;;
32637;SDS011;19045;52.268;10.506;2022-10-24T03:43:53;13.05;;;4.03;;
32637;SDS011;19045;52.268;10.506;2022-10-24T03:46:19;14.50;;;3.83;;
32637;SDS011;19045;52.268;10.506;2022-10-24T03:48:46;13.00;;;3.20;;
32637;SDS011;19045;52.268;10.506;2022-10-24T03:51:13;9.60;;;3.53;;
32637;SDS011;19045;52.268;10.506;2022-10-24T03:53:39;10.75;;;3.20;;
32637;SDS011;19045;52.268;10.506;2022-10-24T03:56:06;12.05;;;3.40;;
32637;SDS011;19045;52.268;10.506;2022-10-24T03:58:34;12.48;;;3.50;;
32637;SDS011;19045;52.268;10.506;2022-10-24T04:01:01;9.57;;;3.55;;
32637;SDS011;19045;52.268;10.506;2022-10-24T04:03:27;11.57;;;3.22;;
32637;SDS011;19045;52.268;10.506;2022-10-24T04:05:54;10.50;;;3.80;;
32637;SDS011;19045;52.268;10.506;2022-10-24T04:08:21;7.85;;;2.85;;
32637;SDS011;19045;52.268;10.506;2022-10-24T04:10:47;11.02;;;3.00;;
32637;SDS011;19045;52.268;10.506;2022-10-24T04:13:14;8.82;;;2.80;;
32637;SDS011;19045;52.268;10.506;2022-10-24T04:15:42;9.00;;;3.20;;
32637;SDS011;19045;52.268;10.506;2022-10-24T04:18:09;9.40;;;3.00;;
32637;SDS011;19045;52.268;10.506;2022-10-24T04:20:36;12.15;;;3.35;;
32637;SDS011;19045;52.268;10.506;2022-10-24T04:23:02;13.38;;;3.08;;
32637;SDS011;19045;52.268;10.506;2022-10-24T04:25:29;11.60;;;3.47;;
32637;SDS011;19045;52.268;10.506;2022-10-24T04:27:56;11.32;;;3.25;;
32637;SDS011;19045;52.268;10.506;2022-10-24T04:30:22;13.75;;;3.65;;
32637;SDS011;19045;52.268;10.506;2022-10-24T04:32:50;11.40;;;3.22;;
32637;SDS011;19045;52.268;10.506;2022-10-24T04:35:17;9.20;;;2.92;;
32637;SDS011;19045;52.268;10.506;2022-10-24T04:37:44;11.07;;;2.90;;
32637;SDS011;19045;52.268;10.506;2022-10-24T04:40:10;13.43;;;3.05;;
32637;SDS011;19045;52.268;10.506;2022-10-24T04:42:37;12.15;;;3.45;;
32637;SDS011;19045;52.268;10.506;2022-10-24T04:45:04;5.75;;;2.88;;
32637;SDS011;19045;52.268;10.506;2022-10-24T04:47:32;11.95;;;3.22;;
32637;SDS011;19045;52.268;10.506;2022-10-24T04:50:00;8.98;;;3.33;;
32637;SDS011;19045;52.268;10.506;2022-10-24T04:52:26;7.40;;;2.92;;
32637;SDS011;19045;52.268;10.506;2022-10-24T04:54:53;13.95;;;3.47;;
32637;SDS011;19045;52.268;10.506;2022-10-24T04:57:20;7.45;;;3.22;;
32637;SDS011;19045;52.268;10.506;2022-10-24T04:59:46;10.27;;;2.60;;
32637;SDS011;19045;52.268;10.506;2022-10-24T05:02:13;7.32;;;2.72;;
32637;SDS011;19045;52.268;10.506;2022-10-24T05:04:40;9.00;;;3.13;;
32637;SDS011;19045;52.268;10.506;2022-10-24T05:07:08;9.43;;;3.45;;
32637;SDS011;19045;52.268;10.506;2022-10-24T05:09:34;8.32;;;3.20;;
32637;SDS011;19045;52.268;10.506;2022-10-24T05:12:01;9.55;;;3.17;;
32637;SDS011;19045;52.268;10.506;2022-10-24T05:14:28;13.38;;;3.40;;
32637;SDS011;19045;52.268;10.506;2022-10-24T05:16:55;8.80;;;3.38;;
32637;SDS011;19045;52.268;10.506;2022-10-24T05:19:22;13.60;;;3.47;;
32637;SDS011;19045;52.268;10.506;2022-10-24T05:21:48;6.20;;;3.05;;
32637;SDS011;19045;52.268;10.506;2022-10-24T05:24:16;12.65;;;2.95;;
32637;SDS011;19045;52.268;10.506;2022-10-24T05:26:43;15.23;;;3.55;;
32637;SDS011;19045;52.268;10.506;2022-10-24T05:29:10;10.25;;;3.17;;
32637;SDS011;19045;52.268;10.506;2022-10-24T05:31:36;12.38;;;3.53;;
32637;SDS011;19045;52.268;10.506;2022-10-24T05:34:03;12.18;;;3.22;;
32637;SDS011;19045;52.268;10.506;2022-10-24T05:36:29;11.68;;;3.40;;
32637;SDS011;19045;52.268;10.506;2022-10-24T05:38:56;11.93;;;4.20;;
32637;SDS011;19045;52.268;10.506;2022-10-24T05:41:24;12.48;;;3.80;;
32637;SDS011;19045;52.268;10.506;2022-10-24T05:43:51;11.00;;;3.78;;
32637;SDS011;19045;52.268;10.506;2022-10-24T05:46:17;10.13;;;3.63;;
32637;SDS011;19045;52.268;10.506;2022-10-24T05:48:44;12.50;;;3.50;;
32637;SDS011;19045;52.268;10.506;2022-10-24T05:51:11;7.50;;;3.00;;
32637;SDS011;19045;52.268;10.506;2022-10-24T05:53:37;11.98;;;3.45;;
32637;SDS011;19045;52.268;10.506;2022-10-24T05:56:04;12.48;;;3.88;;
32637;SDS011;19045;52.268;10.506;2022-10-24T05:58:32;9.73;;;3.50;;
32637;SDS011;19045;52.268;10.506;2022-10-24T06:00:59;7.00;;;3.30;;
32637;SDS011;19045;52.268;10.506;2022-10-24T06:03:25;9.65;;;3.25;;
32637;SDS011;19045;52.268;10.506;2022-10-24T06:05:52;12.10;;;3.63;;
32637;SDS011;19045;52.268;10.506;2022-10-24T06:08:19;10.55;;;3.58;;
32637;SDS011;19045;52.268;10.506;2022-10-24T06:10:46;7.25;;;2.80;;
32637;SDS011;19045;52.268;10.506;2022-10-24T06:13:15;15.00;;;3.30;;
32637;SDS011;19045;52.268;10.506;2022-10-24T06:15:43;12.10;;;3.58;;
32637;SDS011;19045;52.268;10.506;2022-10-24T06:18:10;9.80;;;3.50;;
32637;SDS011;19045;52.268;10.506;2022-10-24T06:20:37;8.52;;;3.20;;
32637;SDS011;19045;52.268;10.506;2022-10-24T06:23:04;9.82;;;3.00;;
32637;SDS011;19045;52.268;10.506;2022-10-24T06:25:31;7.80;;;3.25;;
32637;SDS011;19045;52.268;10.506;2022-10-24T06:27:58;8.73;;;3.20;;
32637;SDS011;19045;52.268;10.506;2022-10-24T06:30:24;11.68;;;4.15;;
32637;SDS011;19045;52.268;10.506;2022-10-24T06:32:53;12.60;;;3.65;;
32637;SDS011;19045;52.268;10.506;2022-10-24T06:35:19;15.00;;;3.42;;
32637;SDS011;19045;52.268;10.506;2022-10-24T06:37:46;7.40;;;3.38;;
32637;SDS011;19045;52.268;10.506;2022-10-24T06:40:13;10.63;;;3.95;;
32637;SDS011;19045;52.268;10.506;2022-10-24T06:42:39;7.65;;;3.13;;
32637;SDS011;19045;52.268;10.506;2022-10-24T06:45:08;7.90;;;3.60;;
32637;SDS011;19045;52.268;10.506;2022-10-24T06:47:35;11.90;;;3.53;;
32637;SDS011;19045;52.268;10.506;2022-10-24T06:50:03;11.15;;;3.65;;
32637;SDS011;19045;52.268;10.506;2022-10-24T06:52:30;7.68;;;3.45;;
32637;SDS011;19045;52.268;10.506;2022-10-24T06:54:57;11.77;;;3.08;;
32637;SDS011;19045;52.268;10.506;2022-10-24T06:57:24;11.35;;;4.05;;
32637;SDS011;19045;52.268;10.506;2022-10-24T06:59:51;10.18;;;3.78;;
32637;SDS011;19045;52.268;10.506;2022-10-24T07:02:18;9.85;;;3.55;;
32637;SDS011;19045;52.268;10.506;2022-10-24T07:04:45;19.88;;;4.10;;
32637;SDS011;19045;52.268;10.506;2022-10-24T07:07:14;13.68;;;4.28;;
32637;SDS011;19045;52.268;10.506;2022-10-24T07:09:41;9.88;;;3.40;;
32637;SDS011;19045;52.268;10.506;2022-10-24T07:12:08;14.45;;;3.72;;
32637;SDS011;19045;52.268;10.506;2022-10-24T07:14:35;13.02;;;4.00;;
32637;SDS011;19045;52.268;10.506;2022-10-24T07:17:02;12.20;;;3.50;;
32637;SDS011;19045;52.268;10.506;2022-10-24T07:19:29;12.60;;;3.88;;
32637;SDS011;19045;52.268;10.506;2022-10-24T07:21:56;20.27;;;3.70;;
32637;SDS011;19045;52.268;10.506;2022-10-24T07:24:24;13.02;;;3.55;;
32637;SDS011;19045;52.268;10.506;2022-10-24T07:26:51;11.25;;;3.50;;
32637;SDS011;19045;52.268;10.506;2022-10-24T07:29:17;11.93;;;3.20;;
32637;SDS011;19045;52.268;10.506;2022-10-24T07:31:44;9.38;;;3.33;;
32637;SDS011;19045;52.268;10.506;2022-10-24T07:34:12;16.13;;;3.65;;
32637;SDS011;19045;52.268;10.506;2022-10-24T07:36:38;13.52;;;3.80;;
32637;SDS011;19045;52.268;10.506;2022-10-24T07:39:05;11.85;;;3.47;;
32637;SDS011;19045;52.268;10.506;2022-10-24T07:41:35;16.58;;;3.50;;
32637;SDS011;19045;52.268;10.506;2022-10-24T07:44:04;18.00;;;3.25;;
32637;SDS011;19045;52.268;10.506;2022-10-24T07:46:31;9.90;;;3.03;;
32637;SDS011;19045;52.268;10.506;2022-10-24T07:48:58;16.63;;;3.50;;
32637;SDS011;19045;52.268;10.506;2022-10-24T07:51:25;13.23;;;3.15;;
32637;SDS011;19045;52.268;10.506;2022-10-24T07:53:52;11.88;;;3.15;;
32637;SDS011;19045;52.268;10.506;2022-10-24T07:56:19;15.32;;;3.53;;
32637;SDS011;19045;52.268;10.506;2022-10-24T07:58:50;17.10;;;3.47;;
32637;SDS011;19045;52.268;10.506;2022-10-24T08:01:17;16.70;;;2.92;;
32637;SDS011;19045;52.268;10.506;2022-10-24T08:03:46;14.45;;;3.08;;
32637;SDS011;19045;52.268;10.506;2022-10-24T08:06:14;14.25;;;2.67;;
32637;SDS011;19045;52.268;10.506;2022-10-24T08:08:42;9.35;;;2.80;;
32637;SDS011;19045;52.268;10.506;2022-10-24T08:11:10;10.93;;;2.78;;
32637;SDS011;19045;52.268;10.506;2022-10-24T08:13:39;12.32;;;3.60;;
32637;SDS011;19045;52.268;10.506;2022-10-24T08:16:11;12.50;;;3.13;;
32637;SDS011;19045;52.268;10.506;2022-10-24T08:18:39;15.40;;;2.92;;
32637;SDS011;19045;52.268;10.506;2022-10-24T08:21:06;14.85;;;3.83;;
32637;SDS011;19045;52.268;10.506;2022-10-24T08:23:35;15.07;;;3.33;;
32637;SDS011;19045;52.268;10.506;2022-10-24T08:26:03;18.95;;;3.00;;
32637;SDS011;19045;52.268;10.506;2022-10-24T08:28:30;12.43;;;2.90;;
32637;SDS011;19045;52.268;10.506;2022-10-24T08:30:57;17.05;;;3.67;;
32637;SDS011;19045;52.268;10.506;2022-10-24T08:33:26;14.23;;;2.65;;
32637;SDS011;19045;52.268;10.506;2022-10-24T08:35:54;13.93;;;2.75;;
32637;SDS011;19045;52.268;10.506;2022-10-24T08:38:23;13.25;;;2.90;;
32637;SDS011;19045;52.268;10.506;2022-10-24T08:40:50;15.13;;;3.00;;
32637;SDS011;19045;52.268;10.506;2022-10-24T08:43:17;14.73;;;2.97;;
32637;SDS011;19045;52.268;10.506;2022-10-24T08:45:46;11.25;;;3.58;;
32637;SDS011;19045;52.268;10.506;2022-10-24T08:48:22;14.07;;;3.25;;
32637;SDS011;19045;52.268;10.506;2022-10-24T08:50:56;15.02;;;2.80;;
32637;SDS011;19045;52.268;10.506;2022-10-24T08:53:28;16.23;;;2.47;;
32637;SDS011;19045;52.268;10.506;2022-10-24T08:55:57;12.68;;;2.65;;
32637;SDS011;19045;52.268;10.506;2022-10-24T08:58:26;13.20;;;2.67;;
32637;SDS011;19045;52.268;10.506;2022-10-24T09:00:56;10.90;;;2.55;;
32637;SDS011;19045;52.268;10.506;2022-10-24T09:03:26;14.60;;;2.58;;
32637;SDS011;19045;52.268;10.506;2022-10-24T09:06:01;8.93;;;2.30;;
32637;SDS011;19045;52.268;10.506;2022-10-24T09:08:32;12.75;;;2.88;;
32637;SDS011;19045;52.268;10.506;2022-10-24T09:11:06;18.45;;;2.70;;
32637;SDS011;19045;52.268;10.506;2022-10-24T09:13:39;16.63;;;3.60;;
32637;SDS011;19045;52.268;10.506;2022-10-24T09:16:08;11.40;;;3.92;;
32637;SDS011;19045;52.268;10.506;2022-10-24T09:18:37;15.20;;;4.57;;
32637;SDS011;19045;52.268;10.506;2022-10-24T09:21:08;20.88;;;5.55;;
32637;SDS011;19045;52.268;10.506;2022-10-24T09:23:39;14.90;;;4.70;;
32637;SDS011;19045;52.268;10.506;2022-10-24T09:26:07;13.57;;;4.18;;
32637;SDS011;19045;52.268;10.506;2022-10-24T09:28:39;14.35;;;3.72;;
32637;SDS011;19045;52.268;10.506;2022-10-24T09:31:10;12.15;;;3.53;;
32637;SDS011;19045;52.268;10.506;2022-10-24T09:33:40;13.90;;;3.55;;
32637;SDS011;19045;52.268;10.506;2022-10-24T09:36:10;11.85;;;3.30;;
32637;SDS011;19045;52.268;10.506;2022-10-24T09:38:39;13.00;;;3.33;;
32637;SDS011;19045;52.268;10.506;2022-10-24T09:41:07;16.70;;;3.30;;
32637;SDS011;19045;52.268;10.506;2022-10-24T09:43:45;17.08;;;3.05;;
32637;SDS011;19045;52.268;10.506;2022-10-24T09:46:15;12.27;;;3.08;;
32637;SDS011;19045;52.268;10.506;2022-10-24T09:48:45;15.23;;;2.90;;
32637;SDS011;19045;52.268;10.506;2022-10-24T09:51:24;13.63;;;3.08;;
32637;SDS011;19045;52.268;10.506;2022-10-24T09:54:09;12.20;;;3.00;;
32637;SDS011;19045;52.268;10.506;2022-10-24T09:56:53;17.73;;;2.95;;
32637;SDS011;19045;52.268;10.506;2022-10-24T09:59:26;11.50;;;2.70;;
32637;SDS011;19045;52.268;10.506;2022-10-24T10:02:16;12.32;;;2.60;;
32637;SDS011;19045;52.268;10.506;2022-10-24T10:04:45;19.50;;;3.55;;
32637;SDS011;19045;52.268;10.506;2022-10-24T10:07:16;13.00;;;3.65;;
32637;SDS011;19045;52.268;10.506;2022-10-24T10:09:47;8.50;;;2.65;;
32637;SDS011;19045;52.268;10.506;2022-10-24T10:12:26;17.40;;;3.00;;
32637;SDS011;19045;52.268;10.506;2022-10-24T10:14:57;12.57;;;3.45;;
32637;SDS011;19045;52.268;10.506;2022-10-24T10:17:25;14.65;;;3.05;;
32637;SDS011;19045;52.268;10.506;2022-10-24T10:19:55;20.23;;;3.70;;
32637;SDS011;19045;52.268;10.506;2022-10-24T10:22:25;14.68;;;3.67;;
32637;SDS011;19045;52.268;10.506;2022-10-24T10:24:53;17.90;;;3.40;;
32637;SDS011;19045;52.268;10.506;2022-10-24T10:27:31;15.77;;;3.05;;
32637;SDS011;19045;52.268;10.506;2022-10-24T10:30:16;21.48;;;3.20;;
32637;SDS011;19045;52.268;10.506;2022-10-24T10:32:52;8.60;;;3.28;;
32637;SDS011;19045;52.268;10.506;2022-10-24T10:35:27;14.25;;;3.30;;
32637;SDS011;19045;52.268;10.506;2022-10-24T10:38:01;14.45;;;3.22;;
32637;SDS011;19045;52.268;10.506;2022-10-24T10:40:43;12.95;;;2.80;;
32637;SDS011;19045;52.268;10.506;2022-10-24T10:43:17;17.50;;;3.28;;
32637;SDS011;19045;52.268;10.506;2022-10-24T10:45:52;16.48;;;2.95;;
32637;SDS011;19045;52.268;10.506;2022-10-24T10:48:32;17.33;;;3.30;;
32637;SDS011;19045;52.268;10.506;2022-10-24T10:51:10;12.05;;;2.47;;
32637;SDS011;19045;52.268;10.506;2022-10-24T10:53:46;9.85;;;2.80;;
32637;SDS011;19045;52.268;10.506;2022-10-24T10:56:23;8.43;;;2.55;;
32637;SDS011;19045;52.268;10.506;2022-10-24T10:58:58;12.02;;;3.25;;
32637;SDS011;19045;52.268;10.506;2022-10-24T11:01:35;12.10;;;2.88;;
32637;SDS011;19045;52.268;10.506;2022-10-24T11:04:12;10.93;;;2.42;;
32637;SDS011;19045;52.268;10.506;2022-10-24T11:06:48;12.57;;;1.83;;
32637;SDS011;19045;52.268;10.506;2022-10-24T11:09:25;11.77;;;3.47;;
32637;SDS011;19045;52.268;10.506;2022-10-24T11:11:58;15.75;;;2.15;;
32637;SDS011;19045;52.268;10.506;2022-10-24T11:14:30;7.43;;;1.80;;
32637;SDS011;19045;52.268;10.506;2022-10-24T11:17:02;8.45;;;2.15;;
32637;SDS011;19045;52.268;10.506;2022-10-24T11:19:39;11.57;;;2.25;;
32637;SDS011;19045;52.268;10.506;2022-10-24T11:22:14;12.68;;;2.03;;
32637;SDS011;19045;52.268;10.506;2022-10-24T11:24:50;9.68;;;1.70;;
32637;SDS011;19045;52.268;10.506;2022-10-24T11:27:23;6.80;;;1.73;;
32637;SDS011;19045;52.268;10.506;2022-10-24T11:29:54;7.90;;;2.08;;
32637;SDS011;19045;52.268;10.506;2022-10-24T11:34:58;9.93;;;1.90;;
32637;SDS011;19045;52.268;10.506;2022-10-24T11:37:31;10.80;;;2.83;;
32637;SDS011;19045;52.268;10.506;2022-10-24T11:40:02;10.32;;;2.13;;
32637;SDS011;19045;52.268;10.506;2022-10-24T11:45:05;7.38;;;2.42;;
32637;SDS011;19045;52.268;10.506;2022-10-24T11:50:12;8.98;;;2.13;;
32637;SDS011;19045;52.268;10.506;2022-10-24T11:52:47;15.23;;;2.38;;
32637;SDS011;19045;52.268;10.506;2022-10-24T11:55:18;8.32;;;1.70;;
32637;SDS011;19045;52.268;10.506;2022-10-24T11:57:48;10.18;;;1.90;;
32637;SDS011;19045;52.268;10.506;2022-10-24T12:00:18;7.82;;;1.67;;
32637;SDS011;19045;52.268;10.506;2022-10-24T12:06:02;7.57;;;1.77;;
32637;SDS011;19045;52.268;10.506;2022-10-24T12:08:45;5.20;;;1.30;;
32637;SDS011;19045;52.268;10.506;2022-10-24T12:17:16;11.85;;;1.88;;
32637;SDS011;19045;52.268;10.506;2022-10-24T12:19:56;8.30;;;1.80;;
32637;SDS011;19045;52.268;10.506;2022-10-24T12:22:27;7.28;;;1.80;;
32637;SDS011;19045;52.268;10.506;2022-10-24T12:25:03;7.13;;;1.73;;
32637;SDS011;19045;52.268;10.506;2022-10-24T12:27:33;5.63;;;1.38;;
32637;SDS011;19045;52.268;10.506;2022-10-24T12:30:04;10.13;;;1.50;;
32637;SDS011;19045;52.268;10.506;2022-10-24T12:32:43;8.32;;;1.63;;
32637;SDS011;19045;52.268;10.506;2022-10-24T12:38:14;10.65;;;2.38;;
32637;SDS011;19045;52.268;10.506;2022-10-24T12:40:50;6.35;;;1.33;;
32637;SDS011;19045;52.268;10.506;2022-10-24T12:43:27;6.50;;;1.60;;
32637;SDS011;19045;52.268;10.506;2022-10-24T12:45:56;10.60;;;2.22;;
32637;SDS011;19045;52.268;10.506;2022-10-24T12:48:33;6.45;;;1.55;;
32637;SDS011;19045;52.268;10.506;2022-10-24T12:51:02;9.43;;;1.90;;
32637;SDS011;19045;52.268;10.506;2022-10-24T12:53:32;5.18;;;1.38;;
32637;SDS011;19045;52.268;10.506;2022-10-24T12:56:14;12.55;;;1.75;;
32637;SDS011;19045;52.268;10.506;2022-10-24T12:58:44;8.32;;;1.33;;
32637;SDS011;19045;52.268;10.506;2022-10-24T13:01:24;7.70;;;1.92;;
32637;SDS011;19045;52.268;10.506;2022-10-24T13:04:11;7.47;;;1.30;;
32637;SDS011;19045;52.268;10.506;2022-10-24T13:07:10;7.38;;;1.52;;
32637;SDS011;19045;52.268;10.506;2022-10-24T13:09:41;7.07;;;1.63;;
32637;SDS011;19045;52.268;10.506;2022-10-24T13:12:20;10.00;;;1.85;;
32637;SDS011;19045;52.268;10.506;2022-10-24T13:15:11;8.35;;;1.63;;
32637;SDS011;19045;52.268;10.506;2022-10-24T13:17:52;5.72;;;1.60;;
32637;SDS011;19045;52.268;10.506;2022-10-24T13:20:32;5.65;;;1.42;;
32637;SDS011;19045;52.268;10.506;2022-10-24T13:23:02;6.10;;;1.88;;
32637;SDS011;19045;52.268;10.506;2022-10-24T13:25:38;8.38;;;1.60;;
32637;SDS011;19045;52.268;10.506;2022-10-24T13:37:13;7.90;;;1.65;;
32637;SDS011;19045;52.268;10.506;2022-10-24T13:39:46;8.98;;;1.77;;
32637;SDS011;19045;52.268;10.506;2022-10-24T13:42:22;6.70;;;1.38;;
32637;SDS011;19045;52.268;10.506;2022-10-24T13:44:53;3.53;;;1.40;;
32637;SDS011;19045;52.268;10.506;2022-10-24T13:47:24;6.60;;;1.83;;
32637;SDS011;19045;52.268;10.506;2022-10-24T13:49:56;8.77;;;1.65;;
32637;SDS011;19045;52.268;10.506;2022-10-24T13:52:28;9.95;;;2.03;;
32637;SDS011;19045;52.268;10.506;2022-10-24T13:55:11;7.63;;;1.92;;
32637;SDS011;19045;52.268;10.506;2022-10-24T13:57:51;4.30;;;1.52;;
32637;SDS011;19045;52.268;10.506;2022-10-24T14:00:22;8.68;;;1.90;;
32637;SDS011;19045;52.268;10.506;2022-10-24T14:02:50;4.32;;;1.55;;
32637;SDS011;19045;52.268;10.506;2022-10-24T14:05:27;6.57;;;1.85;;
32637;SDS011;19045;52.268;10.506;2022-10-24T14:07:58;6.50;;;1.55;;
32637;SDS011;19045;52.268;10.506;2022-10-24T14:10:26;11.98;;;1.45;;
32637;SDS011;19045;52.268;10.506;2022-10-24T14:12:53;9.43;;;2.40;;
32637;SDS011;19045;52.268;10.506;2022-10-24T14:15:23;7.55;;;1.40;;
32637;SDS011;19045;52.268;10.506;2022-10-24T14:17:53;7.75;;;1.40;;
32637;SDS011;19045;52.268;10.506;2022-10-24T14:20:23;9.95;;;1.95;;
32637;SDS011;19045;52.268;10.506;2022-10-24T14:22:51;8.98;;;1.30;;
32637;SDS011;19045;52.268;10.506;2022-10-24T14:25:27;5.75;;;1.30;;
32637;SDS011;19045;52.268;10.506;2022-10-24T14:27:57;9.05;;;1.50;;
32637;SDS011;19045;52.268;10.506;2022-10-24T14:30:26;15.98;;;2.08;;
32637;SDS011;19045;52.268;10.506;2022-10-24T14:33:04;8.93;;;1.50;;
32637;SDS011;19045;52.268;10.506;2022-10-24T14:35:32;8.65;;;1.73;;
32637;SDS011;19045;52.268;10.506;2022-10-24T14:37:59;5.50;;;1.40;;
32637;SDS011;19045;52.268;10.506;2022-10-24T14:40:27;5.97;;;1.80;;
32637;SDS011;19045;52.268;10.506;2022-10-24T14:42:56;8.38;;;2.10;;
32637;SDS011;19045;52.268;10.506;2022-10-24T14:45:26;8.85;;;1.75;;
32637;SDS011;19045;52.268;10.506;2022-10-24T14:47:55;8.18;;;1.67;;
32637;SDS011;19045;52.268;10.506;2022-10-24T14:50:37;8.75;;;2.03;;
32637;SDS011;19045;52.268;10.506;2022-10-24T14:53:13;13.15;;;2.05;;
32637;SDS011;19045;52.268;10.506;2022-10-24T14:55:50;6.75;;;1.90;;
32637;SDS011;19045;52.268;10.506;2022-10-24T14:58:19;8.32;;;1.73;;
32637;SDS011;19045;52.268;10.506;2022-10-24T15:00:47;12.02;;;1.75;;
32637;SDS011;19045;52.268;10.506;2022-10-24T15:03:14;9.63;;;2.05;;
32637;SDS011;19045;52.268;10.506;2022-10-24T15:05:51;14.90;;;1.73;;
32637;SDS011;19045;52.268;10.506;2022-10-24T15:08:22;6.75;;;1.73;;
32637;SDS011;19045;52.268;10.506;2022-10-24T15:11:04;12.95;;;2.17;;
32637;SDS011;19045;52.268;10.506;2022-10-24T15:13:42;8.75;;;2.10;;
32637;SDS011;19045;52.268;10.506;2022-10-24T15:18:43;11.27;;;2.38;;
32637;SDS011;19045;52.268;10.506;2022-10-24T15:21:11;5.65;;;1.80;;
32637;SDS011;19045;52.268;10.506;2022-10-24T15:23:44;7.28;;;1.55;;
32637;SDS011;19045;52.268;10.506;2022-10-24T15:26:16;7.03;;;1.73;;